Time;durP1;ratioP1;P1;durP2;ratioP2;P2;SDS_P1;SDS_P2;PMS_P1;PMS_P2;Temp;Humidity;BMP_temperature;BMP_pressure;BME280_temperature;BME280_humidity;BME280_pressure;Samples;Min_cycle;Max_cycle;Signal;HPM_P1;HPM_P2
2022/02/23 00:02:12;;;;;;;25.40;16.85;;;;;;;9.04;100.00;101159.84;4900073;29;20029;-71
2022/02/23 00:04:58;;;;;;;28.05;16.75;;;;;;;9.02;100.00;101165.97;4899343;29;20449;-70
2022/02/23 00:07:44;;;;;;;27.92;18.05;;;;;;;9.22;100.00;101156.28;4899959;29;20043;-71
2022/02/23 00:10:30;;;;;;;25.65;16.92;;;;;;;8.97;100.00;101150.28;4900528;29;20440;-71
2022/02/23 00:13:16;;;;;;;23.80;16.42;;;;;;;9.18;100.00;101157.19;4899498;29;20035;-70
2022/02/23 00:16:01;;;;;;;27.42;17.77;;;;;;;8.96;100.00;101147.72;4899821;29;20056;-71
2022/02/23 00:18:47;;;;;;;27.15;17.83;;;;;;;9.02;100.00;101142.44;4899719;29;20035;-71
2022/02/23 00:21:33;;;;;;;26.17;17.77;;;;;;;9.18;100.00;101146.72;4899647;29;20087;-71
2022/02/23 00:24:19;;;;;;;28.50;18.25;;;;;;;8.88;100.00;101141.66;4899202;29;20120;-71
2022/02/23 00:27:05;;;;;;;32.30;18.95;;;;;;;8.94;100.00;101139.00;4900832;29;20450;-70
2022/02/23 00:29:51;;;;;;;29.25;18.00;;;;;;;8.89;100.00;101146.00;4899549;29;20117;-71
2022/02/23 00:32:37;;;;;;;27.65;17.58;;;;;;;8.89;100.00;101144.22;4900414;29;20350;-70
2022/02/23 00:35:23;;;;;;;26.45;17.25;;;;;;;8.97;100.00;101149.44;4899607;29;20347;-71
2022/02/23 00:38:09;;;;;;;23.40;16.80;;;;;;;8.70;100.00;101145.19;4899822;29;20101;-70
2022/02/23 00:40:55;;;;;;;25.77;17.23;;;;;;;8.48;100.00;101145.25;4899212;29;20028;-71
2022/02/23 00:43:41;;;;;;;26.27;16.33;;;;;;;8.71;100.00;101149.53;4898797;29;20465;-70
2022/02/23 00:46:27;;;;;;;24.42;16.58;;;;;;;8.66;100.00;101150.41;4899361;29;20089;-70
2022/02/23 00:49:13;;;;;;;24.63;16.85;;;;;;;8.71;100.00;101159.09;4899356;29;20036;-71
2022/02/23 00:51:58;;;;;;;23.58;16.02;;;;;;;8.76;100.00;101159.97;4899389;29;20028;-71
2022/02/23 00:54:44;;;;;;;27.20;16.75;;;;;;;8.99;100.00;101155.50;4898993;29;20107;-71
2022/02/23 00:57:30;;;;;;;21.88;15.90;;;;;;;9.06;100.00;101163.34;4899371;29;20052;-71
2022/02/23 01:00:16;;;;;;;24.70;15.70;;;;;;;8.49;100.00;101157.44;4899056;29;20103;-71
2022/02/23 01:03:02;;;;;;;22.30;15.52;;;;;;;8.68;100.00;101162.59;4898800;29;20504;-70
2022/02/23 01:05:48;;;;;;;20.95;14.88;;;;;;;8.66;100.00;101166.97;4898886;29;20116;-71
2022/02/23 01:08:34;;;;;;;22.63;14.43;;;;;;;8.63;100.00;101161.75;4899252;29;20521;-70
2022/02/23 01:11:22;;;;;;;22.35;14.85;;;;;;;8.94;100.00;101172.97;4898289;29;20046;-71
2022/02/23 01:14:09;;;;;;;21.45;14.55;;;;;;;8.73;100.00;101167.81;4899605;29;20052;-71
2022/02/23 01:16:55;;;;;;;22.95;14.80;;;;;;;8.68;100.00;101172.19;4898658;29;20049;-71
2022/02/23 01:19:40;;;;;;;23.55;15.68;;;;;;;8.87;100.00;101177.34;4899587;29;20181;-70
2022/02/23 01:22:26;;;;;;;22.52;14.73;;;;;;;9.21;100.00;101170.25;4898950;29;20354;-70
2022/02/23 01:25:12;;;;;;;21.63;15.02;;;;;;;8.80;100.00;101180.00;4898976;29;20035;-70
2022/02/23 01:28:02;;;;;;;21.55;14.57;;;;;;;8.86;100.00;101179.97;4899104;29;20020;-71
2022/02/23 01:30:48;;;;;;;21.55;14.13;;;;;;;8.82;100.00;101178.22;4899103;29;20099;-71
2022/02/23 01:33:34;;;;;;;19.52;13.90;;;;;;;8.59;100.00;101167.84;4898619;29;20370;-71
2022/02/23 01:36:19;;;;;;;21.83;13.68;;;;;;;8.39;100.00;101176.56;4898196;29;20462;-70
2022/02/23 01:39:05;;;;;;;19.48;13.27;;;;;;;8.62;100.00;101174.81;4898647;29;20029;-71
2022/02/23 01:41:51;;;;;;;18.80;14.05;;;;;;;8.62;100.00;101178.28;4898404;29;20372;-71
2022/02/23 01:44:37;;;;;;;21.70;13.65;;;;;;;8.65;100.00;101180.88;4898493;29;20406;-70
2022/02/23 01:47:23;;;;;;;22.20;14.18;;;;;;;8.62;100.00;101177.41;4898099;29;20071;-71
2022/02/23 01:50:09;;;;;;;18.50;13.63;;;;;;;8.83;100.00;101190.41;4899032;29;20451;-70
2022/02/23 01:52:55;;;;;;;21.13;13.80;;;;;;;9.14;100.00;101189.44;4897926;29;20028;-70
2022/02/23 01:55:41;;;;;;;21.05;13.95;;;;;;;8.98;100.00;101190.38;4897808;29;20035;-70
2022/02/23 01:58:27;;;;;;;20.55;13.55;;;;;;;9.03;100.00;101194.72;4899377;29;20032;-71
2022/02/23 02:01:13;;;;;;;20.13;13.68;;;;;;;9.01;100.00;101199.06;4898772;29;20028;-71
2022/02/23 02:03:58;;;;;;;16.98;12.48;;;;;;;8.70;100.00;101193.94;4899129;29;20131;-71
2022/02/23 02:06:44;;;;;;;19.45;13.18;;;;;;;9.04;100.00;101206.00;4898645;29;20502;-71
2022/02/23 02:09:30;;;;;;;23.33;14.38;;;;;;;9.00;100.00;101209.50;4898579;29;20032;-71
2022/02/23 02:12:16;;;;;;;18.48;13.52;;;;;;;9.29;100.00;101219.00;4898015;29;20119;-70
2022/02/23 02:15:03;;;;;;;19.77;13.40;;;;;;;9.03;100.00;101214.75;4898025;29;20060;-70
2022/02/23 02:17:49;;;;;;;17.02;12.77;;;;;;;8.92;100.00;101217.38;4899903;29;20036;-71
2022/02/23 02:20:35;;;;;;;19.27;13.43;;;;;;;9.25;100.00;101224.25;4901705;29;20036;-70
2022/02/23 02:23:20;;;;;;;19.67;14.48;;;;;;;9.25;100.00;101226.88;4902627;29;20131;-70
2022/02/23 02:26:06;;;;;;;16.73;12.95;;;;;;;9.08;100.00;101224.31;4902538;29;20028;-72
2022/02/23 02:28:52;;;;;;;18.40;13.57;;;;;;;8.82;100.00;101235.72;4901772;29;20096;-70
2022/02/23 02:31:38;;;;;;;19.58;14.07;;;;;;;8.89;100.00;101234.84;4901872;29;20089;-69
2022/02/23 02:34:24;;;;;;;21.73;14.45;;;;;;;9.07;100.00;101235.66;4901615;29;20025;-72
2022/02/23 02:37:10;;;;;;;21.52;14.55;;;;;;;8.74;100.00;101237.47;4902250;29;20038;-71
2022/02/23 02:39:56;;;;;;;22.05;15.15;;;;;;;8.84;100.00;101254.88;4902374;29;20071;-71
2022/02/23 02:42:41;;;;;;;21.42;13.85;;;;;;;8.89;100.00;101255.72;4901645;29;20047;-71
2022/02/23 02:45:27;;;;;;;20.13;14.35;;;;;;;8.75;100.00;101252.25;4901374;29;20119;-71
2022/02/23 02:48:13;;;;;;;20.45;14.77;;;;;;;8.85;100.00;101259.22;4901322;29;20471;-70
2022/02/23 02:50:59;;;;;;;21.15;14.23;;;;;;;8.87;100.00;101260.06;4901637;29;20319;-71
2022/02/23 02:53:45;;;;;;;22.63;14.82;;;;;;;8.88;100.00;101257.47;4901520;29;20043;-70
2022/02/23 02:56:32;;;;;;;22.65;16.00;;;;;;;8.91;100.00;101260.09;4901636;29;20025;-70
2022/02/23 02:59:17;;;;;;;22.70;15.05;;;;;;;8.82;100.00;101278.41;4901586;29;20096;-71
2022/02/23 03:02:03;;;;;;;22.75;15.02;;;;;;;9.00;100.00;101278.34;4901800;29;20021;-70
2022/02/23 03:04:49;;;;;;;21.70;14.70;;;;;;;9.03;100.00;101275.72;4901472;29;20479;-71
2022/02/23 03:07:35;;;;;;;20.13;14.48;;;;;;;9.29;100.00;101281.75;4901029;29;20037;-70
2022/02/23 03:10:21;;;;;;;19.48;13.80;;;;;;;8.96;100.00;101279.22;4900450;29;20369;-71
2022/02/23 03:13:07;;;;;;;18.55;13.75;;;;;;;8.99;100.00;101279.22;4901739;29;20059;-70
2022/02/23 03:15:52;;;;;;;19.15;14.25;;;;;;;9.20;100.00;101286.13;4901147;29;20124;-71
2022/02/23 03:18:39;;;;;;;20.63;13.80;;;;;;;8.87;100.00;101294.03;4901266;29;20111;-71
2022/02/23 03:21:25;;;;;;;20.65;13.85;;;;;;;9.01;100.00;101290.53;4901439;29;20029;-70
2022/02/23 03:24:10;;;;;;;19.23;13.23;;;;;;;9.01;100.00;101281.84;4901765;29;20032;-72
2022/02/23 03:26:56;;;;;;;17.73;13.68;;;;;;;9.24;100.00;101286.13;4901459;29;20047;-71
2022/02/23 03:29:42;;;;;;;18.25;13.10;;;;;;;8.92;100.00;101294.94;4900069;29;20032;-71
2022/02/23 03:32:28;;;;;;;21.13;14.43;;;;;;;8.68;100.00;101285.34;4901005;29;20032;-71
2022/02/23 03:35:14;;;;;;;20.80;13.50;;;;;;;8.78;100.00;101294.94;4900552;29;20044;-71
2022/02/23 03:37:59;;;;;;;21.05;14.13;;;;;;;8.94;100.00;101301.88;4901685;29;20037;-72
2022/02/23 03:40:45;;;;;;;20.63;14.57;;;;;;;8.96;100.00;101297.50;4900647;29;20092;-71
2022/02/23 03:43:31;;;;;;;19.50;14.75;;;;;;;8.84;100.00;101291.47;4900668;29;20068;-72
2022/02/23 03:46:17;;;;;;;20.45;13.98;;;;;;;8.74;100.00;101305.38;4900525;29;20119;-70
2022/02/23 03:49:03;;;;;;;19.60;13.90;;;;;;;8.70;100.00;101314.09;4900846;29;20024;-71
2022/02/23 03:51:48;;;;;;;17.52;13.65;;;;;;;8.43;100.00;101316.69;4900545;29;20024;-70
2022/02/23 03:54:34;;;;;;;19.58;14.27;;;;;;;8.17;100.00;101310.56;4900853;29;20032;-70
2022/02/23 03:57:20;;;;;;;21.30;14.55;;;;;;;8.21;100.00;101314.94;4900102;29;20025;-71
2022/02/23 04:00:09;;;;;;;21.73;15.00;;;;;;;8.03;100.00;101318.34;4899950;29;20472;-71
2022/02/23 04:02:55;;;;;;;20.48;13.75;;;;;;;7.76;100.00;101317.41;4900336;29;20028;-71
2022/02/23 04:05:40;;;;;;;20.73;15.27;;;;;;;7.86;100.00;101322.66;4899525;29;20119;-71
2022/02/23 04:08:26;;;;;;;26.42;18.02;;;;;;;8.00;100.00;101328.78;4899274;29;20097;-70
2022/02/23 04:11:12;;;;;;;29.85;20.02;;;;;;;7.97;100.00;101323.56;4900538;29;20457;-70
2022/02/23 04:13:58;;;;;;;32.15;23.05;;;;;;;8.08;100.00;101332.28;4899852;29;20051;-71
2022/02/23 04:16:44;;;;;;;42.05;28.33;;;;;;;7.98;100.00;101330.53;4899974;29;20372;-71
2022/02/23 04:19:30;;;;;;;37.30;25.85;;;;;;;8.01;100.00;101330.53;4899628;29;20096;-70
2022/02/23 04:22:15;;;;;;;30.23;21.83;;;;;;;7.98;100.00;101335.75;4899963;29;20047;-71
2022/02/23 04:25:01;;;;;;;28.88;20.30;;;;;;;7.87;100.00;101340.03;4899847;29;20032;-71
2022/02/23 04:27:47;;;;;;;27.30;20.35;;;;;;;7.72;100.00;101349.56;4900432;29;20566;-70
2022/02/23 04:30:33;;;;;;;29.35;19.77;;;;;;;7.98;100.00;101353.13;4899516;29;20025;-71
2022/02/23 04:33:19;;;;;;;28.92;20.55;;;;;;;8.14;100.00;101367.97;4900070;29;20021;-71
2022/02/23 04:36:07;;;;;;;30.90;21.20;;;;;;;8.09;100.00;101377.53;4899987;29;20039;-71
2022/02/23 04:38:53;;;;;;;30.15;20.35;;;;;;;8.01;100.00;101385.34;4900252;29;20063;-71
2022/02/23 04:41:39;;;;;;;26.42;18.75;;;;;;;7.99;100.00;101389.66;4898986;29;20458;-71
2022/02/23 04:44:25;;;;;;;25.20;17.58;;;;;;;8.00;100.00;101385.31;4899970;29;20054;-71
2022/02/23 04:47:11;;;;;;;22.20;16.88;;;;;;;7.70;100.00;101374.75;4899285;29;20029;-71
2022/02/23 04:49:57;;;;;;;22.80;16.85;;;;;;;7.85;100.00;101383.53;4898995;29;20032;-70
2022/02/23 04:52:43;;;;;;;23.30;16.95;;;;;;;7.94;100.00;101395.72;4899712;29;20043;-71
2022/02/23 04:55:29;;;;;;;24.50;16.98;;;;;;;7.75;100.00;101402.59;4899428;29;20029;-71
2022/02/23 04:58:15;;;;;;;25.58;17.15;;;;;;;7.74;100.00;101403.47;4899296;29;20024;-71
2022/02/23 05:01:08;;;;;;;27.40;18.35;;;;;;;7.75;100.00;101405.22;5113062;27;20396;-71
2022/02/23 05:03:53;;;;;;;24.25;17.27;;;;;;;7.65;100.00;101405.16;5147370;27;20045;-71
2022/02/23 05:06:39;;;;;;;25.13;17.65;;;;;;;7.87;100.00;101414.81;5152507;27;20030;-71
2022/02/23 05:09:25;;;;;;;26.98;18.30;;;;;;;8.01;100.00;101406.22;5152054;27;20080;-71
2022/02/23 05:12:10;;;;;;;25.52;18.63;;;;;;;8.20;100.00;101413.22;5137592;27;20121;-71
2022/02/23 05:14:57;;;;;;;25.27;18.23;;;;;;;7.86;100.00;101429.63;5138158;27;20033;-71
2022/02/23 05:17:42;;;;;;;27.65;19.48;;;;;;;8.29;100.00;101436.78;5138164;27;20404;-70
2022/02/23 05:20:28;;;;;;;28.02;20.23;;;;;;;8.02;100.00;101439.25;5153060;27;20023;-71
2022/02/23 05:23:15;;;;;;;28.40;19.75;;;;;;;7.95;100.00;101447.91;5152488;27;20043;-71
2022/02/23 05:26:01;;;;;;;24.77;18.83;;;;;;;7.80;100.00;101460.88;5153352;27;20038;-71
2022/02/23 05:28:47;;;;;;;28.67;20.83;;;;;;;8.11;100.00;101456.66;5151788;27;20058;-71
2022/02/23 05:31:33;;;;;;;29.67;21.33;;;;;;;8.01;100.00;101463.63;5136838;27;20033;-71
2022/02/23 05:34:19;;;;;;;31.55;21.80;;;;;;;7.82;100.00;101476.53;5151608;27;20362;-70
2022/02/23 05:37:05;;;;;;;32.80;23.48;;;;;;;7.89;100.00;101481.81;5137559;27;20089;-71
2022/02/23 05:39:50;;;;;;;30.75;19.98;;;;;;;7.77;100.00;101489.56;5135747;27;20027;-70
2022/02/23 05:42:36;;;;;;;27.48;19.67;;;;;;;7.74;100.00;101493.88;5136818;27;20035;-71
2022/02/23 05:45:23;;;;;;;28.85;20.00;;;;;;;8.15;100.00;101494.97;5136692;27;20069;-71
2022/02/23 05:48:08;;;;;;;31.30;22.55;;;;;;;8.30;100.00;101500.31;5136106;27;20163;-71
2022/02/23 05:50:56;;;;;;;56.03;36.25;;;;;;;8.26;100.00;101498.53;5151995;27;20015;-71
2022/02/23 05:53:42;;;;;;;30.10;21.13;;;;;;;8.49;100.00;101494.28;5150582;27;20045;-71
2022/02/23 05:56:29;;;;;;;25.52;17.63;;;;;;;8.26;100.00;101501.16;5151485;27;20340;-70
2022/02/23 05:59:14;;;;;;;24.92;17.48;;;;;;;8.17;100.00;101519.34;5152000;27;20113;-70
2022/02/23 06:02:00;;;;;;;24.65;16.60;;;;;;;8.04;100.00;101513.19;5152533;27;20015;-70
2022/02/23 06:04:46;;;;;;;24.73;17.05;;;;;;;8.07;100.00;101520.16;5151931;27;20023;-71
2022/02/23 06:07:32;;;;;;;27.58;18.27;;;;;;;8.36;100.00;101516.84;5151315;27;20065;-71
2022/02/23 06:10:18;;;;;;;22.95;17.35;;;;;;;8.02;100.00;101533.19;5150131;27;20019;-71
2022/02/23 06:13:04;;;;;;;24.70;18.15;;;;;;;8.28;100.00;101533.38;5122635;27;20081;-71
2022/02/23 06:15:49;;;;;;;26.50;18.40;;;;;;;8.47;100.00;101525.63;5137376;27;20049;-71
2022/02/23 06:18:35;;;;;;;25.10;16.23;;;;;;;8.36;100.00;101536.91;5136528;27;20088;-70
2022/02/23 06:21:21;;;;;;;24.40;17.42;;;;;;;8.15;100.00;101535.00;5138206;27;20019;-70
2022/02/23 06:24:07;;;;;;;28.40;18.25;;;;;;;8.34;100.00;101539.50;5136849;27;20034;-71
2022/02/23 06:26:53;;;;;;;27.33;17.65;;;;;;;8.50;100.00;101543.91;5138053;27;20109;-71
2022/02/23 06:29:40;;;;;;;29.02;18.83;;;;;;;8.53;100.00;101543.06;5122210;27;20019;-72
2022/02/23 06:32:25;;;;;;;26.70;18.38;;;;;;;8.57;100.00;101534.38;5136728;27;20023;-71
2022/02/23 06:35:11;;;;;;;23.25;17.58;;;;;;;8.34;100.00;101543.84;5137347;27;20034;-70
2022/02/23 06:37:57;;;;;;;23.48;17.38;;;;;;;8.11;100.00;101542.78;5122821;27;20111;-71
2022/02/23 06:40:43;;;;;;;35.25;24.98;;;;;;;8.34;100.00;101549.06;5136285;27;20035;-71
2022/02/23 06:43:29;;;;;;;30.77;22.85;;;;;;;8.46;100.00;101562.16;5136211;27;20431;-70
2022/02/23 06:46:15;;;;;;;23.60;17.67;;;;;;;8.38;100.00;101563.88;5136670;27;20039;-71
2022/02/23 06:49:01;;;;;;;26.33;19.30;;;;;;;8.70;100.00;101568.38;5136616;27;20031;-70
2022/02/23 06:51:48;;;;;;;25.85;18.73;;;;;;;8.53;100.00;101569.16;5136424;27;20445;-71
2022/02/23 06:54:34;;;;;;;25.52;18.25;;;;;;;8.06;100.00;101571.50;5135491;27;20510;-71
2022/02/23 06:57:21;;;;;;;24.48;18.15;;;;;;;7.99;100.00;101577.53;5136486;27;20404;-71
2022/02/23 07:00:09;;;;;;;29.83;20.98;;;;;;;8.30;100.00;101576.91;5121039;27;20039;-71
2022/02/23 07:02:55;;;;;;;29.63;20.90;;;;;;;8.47;100.00;101576.97;5120172;27;20371;-71
2022/02/23 07:05:41;;;;;;;26.65;19.48;;;;;;;8.25;100.00;101572.50;5135574;27;20530;-71
2022/02/23 07:08:27;;;;;;;31.33;20.25;;;;;;;8.08;100.00;101577.59;5120548;27;20087;-71
2022/02/23 07:11:13;;;;;;;27.77;19.27;;;;;;;8.00;100.00;101583.63;5122233;27;20067;-71
2022/02/23 07:13:59;;;;;;;29.23;20.38;;;;;;;8.70;100.00;101578.81;5121563;27;20116;-71
2022/02/23 07:16:45;;;;;;;32.10;21.30;;;;;;;9.05;100.00;101582.38;5121190;27;20454;-71
2022/02/23 07:19:31;;;;;;;32.05;20.92;;;;;;;8.50;100.00;101577.88;5135478;27;20035;-71
2022/02/23 07:22:16;;;;;;;31.80;21.02;;;;;;;8.39;100.00;101589.09;5135181;27;20035;-72
2022/02/23 07:25:04;;;;;;;28.15;20.02;;;;;;;8.80;100.00;101582.34;5136704;27;20054;-72
2022/02/23 07:27:50;;;;;;;28.83;20.92;;;;;;;8.60;100.00;101590.09;5107273;27;20490;-71
2022/02/23 07:30:38;;;;;;;33.58;23.35;;;;;;;8.92;100.00;101596.31;5120065;27;20023;-72
2022/02/23 07:33:23;;;;;;;33.13;22.42;;;;;;;9.15;100.00;101597.25;5121954;27;20038;-72
2022/02/23 07:36:10;;;;;;;33.80;22.88;;;;;;;8.98;100.00;101606.78;5135453;27;20038;-71
2022/02/23 07:38:56;;;;;;;30.80;21.90;;;;;;;8.89;100.00;101598.03;5134471;27;20395;-71
2022/02/23 07:41:42;;;;;;;37.88;25.25;;;;;;;9.42;100.00;101591.19;5134953;27;20344;-71
2022/02/23 07:44:28;;;;;;;38.67;27.13;;;;;;;8.89;100.00;101591.06;5134466;27;20045;-71
2022/02/23 07:47:14;;;;;;;36.63;25.65;;;;;;;9.13;100.00;101583.28;5135275;27;20029;-71
2022/02/23 07:50:01;;;;;;;31.80;22.25;;;;;;;8.90;100.00;101577.16;5135224;27;20019;-71
2022/02/23 07:52:49;;;;;;;34.65;22.42;;;;;;;9.70;100.00;101578.09;5134883;27;20110;-71
2022/02/23 07:55:37;;;;;;;31.75;22.05;;;;;;;10.26;100.00;101587.66;5121428;27;20027;-72
2022/02/23 07:58:23;;;;;;;30.40;21.38;;;;;;;10.49;100.00;101583.25;5119458;27;20035;-71
2022/02/23 08:01:34;;;;;;;29.33;20.40;;;;;;;10.29;100.00;101583.28;5135656;27;20039;-71
2022/02/23 08:04:20;;;;;;;28.35;19.60;;;;;;;10.40;100.00;101581.50;5136772;27;20031;-72
2022/02/23 08:07:20;;;;;;;28.13;19.83;;;;;;;10.88;100.00;101567.38;5135553;27;20015;-71
2022/02/23 08:10:07;;;;;;;32.22;19.25;;;;;;;10.15;100.00;101574.59;5128151;27;20088;-71
2022/02/23 08:12:55;;;;;;;29.08;19.20;;;;;;;10.74;100.00;101554.31;5137780;27;20172;-72
2022/02/23 08:22:03;;;;;;;26.33;18.33;;;;;;;11.78;100.00;101572.84;5137202;27;20101;-71
2022/02/23 08:25:15;;;;;;;27.65;18.10;;;;;;;12.46;100.00;101565.13;5134082;27;20026;-72
2022/02/23 08:28:01;;;;;;;25.65;17.60;;;;;;;12.48;100.00;101571.25;5120863;27;20417;-72
2022/02/23 08:30:47;;;;;;;22.58;16.92;;;;;;;11.85;100.00;101563.19;5120145;27;20023;-71
2022/02/23 08:33:33;;;;;;;26.08;17.77;;;;;;;13.00;100.00;101574.13;5135440;27;20482;-71
2022/02/23 08:36:18;;;;;;;27.67;18.17;;;;;;;12.99;100.00;101561.88;5134976;27;20034;-71
2022/02/23 08:39:06;;;;;;;25.90;17.17;;;;;;;13.99;100.00;101568.13;5135076;27;20442;-72
2022/02/23 08:41:52;;;;;;;21.63;15.25;;;;;;;14.02;99.54;101565.44;5134215;27;20037;-71
2022/02/23 08:44:39;;;;;;;22.70;16.33;;;;;;;13.41;100.00;101569.13;5134324;27;20054;-71
2022/02/23 08:47:26;;;;;;;21.30;15.20;;;;;;;12.60;100.00;101568.47;5134735;27;20059;-71
2022/02/23 08:50:12;;;;;;;26.90;18.08;;;;;;;13.17;100.00;101564.22;5135147;27;20031;-71
2022/02/23 08:52:57;;;;;;;22.75;16.33;;;;;;;13.13;100.00;101568.66;5134652;27;20133;-70
2022/02/23 08:55:43;;;;;;;24.60;16.27;;;;;;;13.05;100.00;101570.53;5135242;27;20042;-71
2022/02/23 08:58:29;;;;;;;32.55;23.20;;;;;;;13.66;100.00;101568.72;5134835;28;20031;-71
2022/02/23 09:01:15;;;;;;;24.88;16.92;;;;;;;13.48;100.00;101574.28;5135124;28;20095;-71
2022/02/23 09:04:02;;;;;;;24.17;15.60;;;;;;;13.64;100.00;101573.16;5134644;28;20456;-70
2022/02/23 09:06:48;;;;;;;27.48;16.70;;;;;;;13.55;100.00;101582.94;5134407;28;20451;-70
2022/02/23 09:09:33;;;;;;;23.20;16.52;;;;;;;13.44;98.26;101576.97;5134725;28;20370;-71
2022/02/23 09:12:23;;;;;;;23.02;16.27;;;;;;;13.01;99.24;101581.13;5118544;28;20497;-71
2022/02/23 09:15:11;;;;;;;24.95;16.50;;;;;;;13.04;97.87;101588.97;5134024;28;20054;-70
2022/02/23 09:17:58;;;;;;;23.48;16.52;;;;;;;12.86;99.40;101587.41;5119973;28;20104;-70
2022/02/23 09:20:43;;;;;;;24.63;16.15;;;;;;;13.34;97.34;101585.91;5134250;28;20023;-71
2022/02/23 09:23:32;;;;;;;26.45;17.65;;;;;;;12.88;97.23;101588.28;5120037;28;20360;-70
2022/02/23 09:26:19;;;;;;;23.92;16.08;;;;;;;13.26;96.06;101590.44;5134363;28;20435;-70
2022/02/23 09:29:06;;;;;;;22.63;16.58;;;;;;;13.22;95.85;101591.38;5119568;28;20042;-70
2022/02/23 09:31:51;;;;;;;22.15;16.35;;;;;;;12.85;93.69;101590.94;5134230;28;20039;-70
2022/02/23 09:34:37;;;;;;;23.42;16.17;;;;;;;12.96;92.23;101591.69;5119579;28;20027;-71
2022/02/23 09:37:23;;;;;;;25.92;16.92;;;;;;;12.69;91.13;101585.88;5133164;28;20035;-71
2022/02/23 09:40:09;;;;;;;26.40;17.60;;;;;;;12.67;92.60;101579.78;5119300;28;20381;-70
2022/02/23 09:42:55;;;;;;;25.30;17.33;;;;;;;12.24;92.68;101595.19;5118949;28;20105;-71
2022/02/23 09:45:43;;;;;;;24.63;16.98;;;;;;;12.47;89.40;101593.19;5135662;27;20031;-71
2022/02/23 09:48:31;;;;;;;21.77;15.65;;;;;;;12.61;90.77;101587.72;5136069;27;20093;-71
2022/02/23 09:51:17;;;;;;;22.02;14.60;;;;;;;12.80;91.66;101581.38;5137640;27;20027;-71
2022/02/23 09:54:02;;;;;;;19.05;14.07;;;;;;;12.94;86.94;101580.28;5138066;27;20027;-70
2022/02/23 09:56:48;;;;;;;22.50;14.23;;;;;;;12.85;90.73;101582.16;5123255;27;20023;-72
2022/02/23 09:59:34;;;;;;;22.38;15.23;;;;;;;12.68;91.69;101581.53;5137638;27;20332;-71
2022/02/23 10:02:21;;;;;;;17.50;13.65;;;;;;;12.71;92.32;101576.22;5137424;27;21433;-71
2022/02/23 10:05:08;;;;;;;18.85;13.25;;;;;;;12.98;92.00;101578.56;5122313;27;20031;-71
2022/02/23 10:08:09;;;;;;;18.77;13.60;;;;;;;13.13;88.36;101573.06;5123189;27;20031;-71
2022/02/23 10:10:55;;;;;;;19.85;14.30;;;;;;;12.60;91.65;101583.38;5141223;27;20057;-71
2022/02/23 10:13:51;;;;;;;19.67;14.27;;;;;;;12.69;95.75;101576.25;5124448;27;20417;-72
2022/02/23 10:16:49;;;;;;;23.65;13.55;;;;;;;12.69;92.32;101575.38;5137166;27;20030;-71
2022/02/23 10:19:36;;;;;;;17.38;12.52;;;;;;;12.13;88.85;101576.00;5137355;27;20039;-72
2022/02/23 10:22:22;;;;;;;16.58;12.50;;;;;;;12.71;86.15;101566.59;5132006;27;20027;-70
2022/02/23 10:25:08;;;;;;;17.23;12.57;;;;;;;12.75;86.19;101573.56;5122964;27;20019;-71
2022/02/23 10:28:07;;;;;;;19.33;12.25;;;;;;;12.89;83.52;101571.59;5137800;27;20061;-71
2022/02/23 10:31:09;;;;;;;20.48;12.98;;;;;;;13.16;82.58;101573.91;5137072;27;20019;-72
2022/02/23 10:33:56;;;;;;;21.23;13.32;;;;;;;12.90;81.90;101570.69;5137532;27;20146;-72
2022/02/23 10:36:41;;;;;;;18.15;12.13;;;;;;;12.80;82.11;101570.84;5122258;27;20404;-70
2022/02/23 10:39:39;;;;;;;18.80;12.38;;;;;;;12.92;80.55;101571.56;5137378;27;20015;-71
2022/02/23 10:42:30;;;;;;;19.20;12.32;;;;;;;12.64;83.00;101569.31;5136421;27;20031;-72
2022/02/23 10:45:18;;;;;;;16.65;12.00;;;;;;;12.96;81.34;101573.28;5136942;27;20045;-71
2022/02/23 10:48:06;;;;;;;19.00;12.88;;;;;;;12.91;85.13;101567.19;5121582;27;20031;-72
2022/02/23 10:50:55;;;;;;;17.77;12.32;;;;;;;12.98;85.08;101570.66;5137566;27;20020;-72
2022/02/23 10:53:41;;;;;;;16.20;11.75;;;;;;;12.80;81.78;101565.59;5108987;27;20038;-72
2022/02/23 10:56:36;;;;;;;16.73;11.68;;;;;;;12.68;84.48;101557.84;5137137;27;20046;-71
2022/02/23 10:59:23;;;;;;;15.77;11.68;;;;;;;13.31;82.67;101565.75;5137147;27;20043;-72
2022/02/23 11:02:09;;;;;;;18.60;11.75;;;;;;;13.62;78.82;101560.88;5135983;27;20031;-71
2022/02/23 11:04:55;;;;;;;18.65;11.82;;;;;;;13.42;79.71;101566.47;5136230;27;20031;-71
2022/02/23 11:07:45;;;;;;;18.08;12.48;;;;;;;13.64;79.84;101562.63;5121217;27;20114;-71
2022/02/23 11:10:32;;;;;;;17.65;11.98;;;;;;;13.11;83.68;101562.53;5136284;27;20027;-72
2022/02/23 11:13:19;;;;;;;20.90;13.07;;;;;;;13.83;78.60;101564.00;5135914;27;20097;-71
2022/02/23 11:16:08;;;;;;;20.80;13.70;;;;;;;13.83;82.76;101560.53;5137000;27;20462;-70
2022/02/23 11:19:00;;;;;;;19.83;13.30;;;;;;;12.59;100.00;101558.88;5135868;27;20356;-72
2022/02/23 11:21:47;;;;;;;25.42;14.68;;;;;;;12.47;100.00;101545.88;5136148;27;20023;-69
2022/02/23 11:24:33;;;;;;;22.17;13.93;;;;;;;13.28;100.00;101550.03;5136282;27;20023;-71
2022/02/23 11:27:24;;;;;;;15.93;12.27;;;;;;;13.24;100.00;101550.97;5121132;27;20069;-72
2022/02/23 11:30:16;;;;;;;18.42;13.70;;;;;;;13.18;100.00;101561.56;5135686;27;20023;-71
2022/02/23 11:33:04;;;;;;;19.60;13.38;;;;;;;13.09;100.00;101553.81;5137074;27;20030;-73
2022/02/23 11:35:52;;;;;;;16.20;12.70;;;;;;;12.91;100.00;101555.81;5138073;27;20031;-70
2022/02/23 11:38:48;;;;;;;17.70;13.10;;;;;;;12.33;100.00;101557.41;5135899;27;20031;-71
2022/02/23 11:41:39;;;;;;;17.80;12.85;;;;;;;12.14;100.00;101559.34;5135720;27;20027;-72
2022/02/23 11:44:32;;;;;;;16.40;12.80;;;;;;;12.33;100.00;101558.28;5136748;27;20116;-71
2022/02/23 11:47:24;;;;;;;18.40;13.25;;;;;;;12.10;100.00;101556.81;5122518;27;20027;-71
2022/02/23 11:50:10;;;;;;;16.08;12.93;;;;;;;12.64;100.00;101553.53;5138498;27;20335;-70
2022/02/23 11:52:56;;;;;;;15.82;12.88;;;;;;;12.45;100.00;101554.63;5138272;27;20074;-71
2022/02/23 11:55:43;;;;;;;14.88;12.35;;;;;;;12.41;100.00;101555.56;5121590;27;20026;-71
2022/02/23 11:58:43;;;;;;;16.50;12.63;;;;;;;12.57;100.00;101554.47;5123410;27;20043;-71
2022/02/23 12:01:46;;;;;;;19.10;13.02;;;;;;;12.61;100.00;101558.81;5135710;27;20038;-71
2022/02/23 12:04:46;;;;;;;19.05;14.57;;;;;;;12.42;100.00;101562.56;5134821;27;20080;-71
2022/02/23 12:07:49;;;;;;;20.75;13.90;;;;;;;12.21;100.00;101552.28;5135309;27;20116;-71
2022/02/23 12:10:37;;;;;;;17.50;13.48;;;;;;;12.31;100.00;101549.56;5120313;27;20031;-72
2022/02/23 12:13:42;;;;;;;16.20;13.25;;;;;;;12.28;100.00;101546.97;5120399;27;20027;-71
2022/02/23 12:16:38;;;;;;;17.10;13.25;;;;;;;12.58;100.00;101541.31;5119952;27;20109;-73
2022/02/23 12:19:40;;;;;;;18.20;13.77;;;;;;;12.37;100.00;101548.59;5135299;27;20088;-71
2022/02/23 12:22:29;;;;;;;18.10;14.13;;;;;;;11.84;100.00;101557.06;5119816;27;20030;-71
2022/02/23 12:25:15;;;;;;;17.90;13.73;;;;;;;12.00;100.00;101555.13;5134731;27;20027;-70
2022/02/23 12:28:04;;;;;;;18.20;14.23;;;;;;;12.35;100.00;101551.28;5135566;27;20035;-70
2022/02/23 12:31:12;;;;;;;17.92;13.65;;;;;;;11.82;100.00;101552.69;5119346;27;20172;-71
2022/02/23 12:34:01;;;;;;;16.95;12.77;;;;;;;12.13;100.00;101548.91;5118799;27;20070;-72
2022/02/23 12:36:49;;;;;;;17.20;12.55;;;;;;;12.35;100.00;101551.28;5135083;27;20023;-72
2022/02/23 12:39:36;;;;;;;15.75;11.90;;;;;;;12.33;100.00;101537.25;5134655;27;20045;-72
2022/02/23 12:42:26;;;;;;;18.10;13.32;;;;;;;12.39;100.00;101538.94;5134576;27;20038;-72
2022/02/23 12:45:11;;;;;;;16.75;12.90;;;;;;;12.61;100.00;101532.53;5134843;27;20023;-71